Time;durP1;ratioP1;P1;durP2;ratioP2;P2;SDS_P1;SDS_P2;PMS_P1;PMS_P2;Temp;Humidity;BMP_temperature;BMP_pressure;BME280_temperature;BME280_humidity;BME280_pressure;Samples;Min_cycle;Max_cycle;Signal;HPM_P1;HPM_P2
2022/06/30 00:04:45;;;;;;;4.38;3.95;;;23.20;63.30;;;;;;10286070;28;20140;-62
2022/06/30 00:09:46;;;;;;;4.63;3.90;;;23.20;63.30;;;;;;10286542;28;20039;-61
2022/06/30 00:14:47;;;;;;;4.03;3.63;;;23.20;63.30;;;;;;10286410;28;20042;-61
2022/06/30 00:19:48;;;;;;;4.53;4.10;;;23.20;63.20;;;;;;10285690;28;20433;-61
2022/06/30 00:24:48;;;;;;;4.60;4.18;;;23.20;63.20;;;;;;10286534;28;20035;-61
2022/06/30 00:29:49;;;;;;;4.07;3.67;;;23.20;63.20;;;;;;10285837;28;20030;-62
2022/06/30 00:34:50;;;;;;;5.15;4.55;;;23.20;63.20;;;;;;10285140;28;20070;-61
2022/06/30 00:39:50;;;;;;;5.85;4.75;;;23.20;63.20;;;;;;10268508;28;20043;-61
2022/06/30 00:44:51;;;;;;;4.65;4.25;;;23.20;63.20;;;;;;10284793;28;20081;-61
2022/06/30 00:49:52;;;;;;;4.38;3.97;;;23.20;63.20;;;;;;10269336;28;20383;-61
2022/06/30 00:54:56;;;;;;;4.50;4.10;;;23.20;63.20;;;;;;10270697;28;20772;-61
2022/06/30 00:59:58;;;;;;;5.07;4.68;;;23.20;63.20;;;;;;10283939;28;20645;-61
2022/06/30 01:04:58;;;;;;;4.55;3.70;;;23.20;63.20;;;;;;10283935;28;20569;-62
2022/06/30 01:15:21;;;;;;;4.90;4.50;;;23.20;63.20;;;;;;10268009;28;20043;-61
2022/06/30 01:20:31;;;;;;;4.82;4.40;;;23.10;63.20;;;;;;10245472;28;20336;-61
2022/06/30 01:25:34;;;;;;;4.47;4.07;;;23.10;63.10;;;;;;10261802;28;20081;-61
2022/06/30 01:30:35;;;;;;;4.85;4.43;;;23.20;63.20;;;;;;10283670;28;20041;-61
2022/06/30 01:35:36;;;;;;;4.63;4.22;;;23.10;63.10;;;;;;10282540;28;20517;-61
2022/06/30 01:40:37;;;;;;;5.07;4.68;;;23.10;63.10;;;;;;10283021;28;20532;-61
2022/06/30 01:45:39;;;;;;;5.43;4.93;;;23.10;63.10;;;;;;10282523;28;20031;-61
2022/06/30 01:50:40;;;;;;;5.22;4.72;;;23.10;63.10;;;;;;10244746;28;20035;-61
2022/06/30 01:55:41;;;;;;;5.55;5.05;;;23.10;63.10;;;;;;10273813;28;20038;-62
2022/06/30 02:00:41;;;;;;;4.93;4.53;;;23.10;63.10;;;;;;10281982;28;20030;-61
2022/06/30 02:05:42;;;;;;;5.75;5.10;;;23.10;63.10;;;;;;10282257;28;20034;-61
2022/06/30 02:10:43;;;;;;;5.28;4.85;;;23.10;63.10;;;;;;10282141;28;20031;-61
2022/06/30 02:15:44;;;;;;;5.18;4.65;;;23.10;63.10;;;;;;10283667;28;20273;-61
2022/06/30 02:20:45;;;;;;;4.65;4.25;;;23.10;63.10;;;;;;10266392;28;20042;-61
2022/06/30 02:25:45;;;;;;;5.45;4.95;;;23.10;63.10;;;;;;10281893;28;20612;-62
2022/06/30 02:30:46;;;;;;;4.65;4.22;;;23.10;63.10;;;;;;10282472;28;20394;-61
2022/06/30 02:35:47;;;;;;;4.97;4.57;;;23.10;63.10;;;;;;10281735;28;20059;-60
2022/06/30 02:40:47;;;;;;;4.80;4.40;;;23.10;63.10;;;;;;10282626;28;20629;-61
2022/06/30 02:45:48;;;;;;;5.00;4.60;;;23.10;63.10;;;;;;10281664;28;20561;-61
2022/06/30 02:50:49;;;;;;;5.40;4.90;;;23.10;63.10;;;;;;10242324;28;20027;-61
2022/06/30 02:55:50;;;;;;;5.43;4.97;;;23.10;63.10;;;;;;10240792;28;20041;-61
2022/06/30 03:00:50;;;;;;;5.53;4.88;;;23.10;63.10;;;;;;10278015;28;20557;-61
2022/06/30 03:05:51;;;;;;;4.45;4.03;;;23.10;63.10;;;;;;10282099;28;20074;-61
2022/06/30 03:10:52;;;;;;;4.82;4.43;;;23.10;63.10;;;;;;10292874;28;20106;-62
2022/06/30 03:15:53;;;;;;;4.93;4.53;;;23.00;63.10;;;;;;10290497;28;20035;-61
2022/06/30 03:20:53;;;;;;;5.13;4.63;;;23.00;63.10;;;;;;10272830;28;20063;-61
2022/06/30 03:25:54;;;;;;;4.75;4.35;;;23.00;63.10;;;;;;10292335;28;20613;-61
2022/06/30 03:30:55;;;;;;;6.03;5.43;;;23.00;63.10;;;;;;10291056;28;20422;-61
2022/06/30 03:35:57;;;;;;;5.72;5.22;;;23.00;63.10;;;;;;10253318;28;20075;-62
2022/06/30 03:40:57;;;;;;;5.97;5.13;;;23.00;63.10;;;;;;10268851;28;20744;-61
2022/06/30 03:45:59;;;;;;;6.15;5.65;;;23.00;63.10;;;;;;10291659;28;20031;-62
2022/06/30 03:50:59;;;;;;;5.00;4.50;;;23.00;63.10;;;;;;10265382;28;20027;-61
2022/06/30 03:56:00;;;;;;;5.65;5.15;;;23.00;63.10;;;;;;10252117;28;20038;-61
2022/06/30 04:01:01;;;;;;;5.25;4.75;;;23.00;63.10;;;;;;10289794;28;20101;-62
2022/06/30 04:06:02;;;;;;;5.25;4.75;;;23.00;63.10;;;;;;10276108;28;20035;-61
2022/06/30 04:11:02;;;;;;;5.63;5.15;;;23.00;63.10;;;;;;10291164;28;20030;-62
2022/06/30 04:16:04;;;;;;;5.60;5.10;;;23.00;63.10;;;;;;10285395;28;20026;-62
2022/06/30 04:21:04;;;;;;;5.15;4.65;;;23.00;63.10;;;;;;10275134;28;20390;-62
2022/06/30 04:26:05;;;;;;;5.15;4.68;;;23.00;63.20;;;;;;10271111;28;20031;-61
2022/06/30 04:36:25;;;;;;;5.55;5.05;;;23.00;63.10;;;;;;10273839;28;20295;-60
2022/06/30 04:41:26;;;;;;;5.22;4.72;;;23.00;63.20;;;;;;10277259;28;20359;-60
2022/06/30 04:46:27;;;;;;;5.10;4.70;;;23.00;63.20;;;;;;10281075;28;20030;-61
2022/06/30 04:51:27;;;;;;;5.60;4.32;;;23.00;63.20;;;;;;10261889;28;20041;-60
2022/06/30 04:56:30;;;;;;;7.82;6.20;;;23.00;63.20;;;;;;10269754;28;20210;-58
2022/06/30 05:01:31;;;;;;;6.45;5.85;;;23.00;64.20;;;;;;10275978;28;20082;-59
2022/06/30 05:06:32;;;;;;;6.57;5.70;;;23.10;64.60;;;;;;10270681;28;20758;-59
2022/06/30 05:11:33;;;;;;;7.45;5.80;;;23.10;65.00;;;;;;10264968;28;20035;-58
2022/06/30 05:16:33;;;;;;;6.97;5.63;;;23.10;65.10;;;;;;10281551;28;20678;-58
2022/06/30 05:21:34;;;;;;;8.15;5.63;;;23.30;65.30;;;;;;10278287;28;20033;-57
2022/06/30 05:26:36;;;;;;;10.73;6.30;;;23.30;65.40;;;;;;10269057;28;20553;-60
2022/06/30 05:31:37;;;;;;;7.18;5.57;;;23.30;65.50;;;;;;10287007;28;20065;-59
2022/06/30 05:36:37;;;;;;;10.68;6.90;;;23.20;65.60;;;;;;10284114;28;20139;-62
2022/06/30 05:41:38;;;;;;;12.82;6.88;;;23.20;65.70;;;;;;10286448;28;20026;-58
2022/06/30 05:46:39;;;;;;;10.70;6.57;;;23.30;66.10;;;;;;10275353;28;20023;-60
2022/06/30 05:51:39;;;;;;;10.30;6.97;;;23.30;65.90;;;;;;10239889;28;20035;-60
2022/06/30 05:56:40;;;;;;;9.73;7.07;;;23.30;66.00;;;;;;10281812;28;20158;-57
2022/06/30 06:01:41;;;;;;;10.82;7.28;;;23.30;66.00;;;;;;10273745;28;20027;-60
2022/06/30 06:06:42;;;;;;;10.35;6.25;;;23.30;66.10;;;;;;10285594;28;20561;-59
2022/06/30 06:11:43;;;;;;;9.52;6.90;;;23.30;66.00;;;;;;10256751;28;20050;-58
2022/06/30 06:16:44;;;;;;;9.45;6.85;;;23.20;66.20;;;;;;10267219;28;20027;-60
2022/06/30 06:21:45;;;;;;;11.93;7.30;;;23.20;65.90;;;;;;10262046;28;20041;-58
2022/06/30 06:26:45;;;;;;;10.38;6.32;;;23.20;66.10;;;;;;10281433;28;20050;-59
2022/06/30 06:31:46;;;;;;;11.98;7.53;;;23.20;65.90;;;;;;10278548;28;20428;-58
2022/06/30 06:36:47;;;;;;;10.27;7.78;;;23.20;65.80;;;;;;10277228;28;20054;-58
2022/06/30 06:41:48;;;;;;;8.20;6.30;;;23.20;65.90;;;;;;10286555;28;20035;-58
2022/06/30 06:46:49;;;;;;;8.82;7.50;;;23.10;66.10;;;;;;10273755;28;20035;-58
2022/06/30 06:51:49;;;;;;;10.77;7.13;;;23.20;65.90;;;;;;10264907;28;20035;-59
2022/06/30 06:56:50;;;;;;;9.48;8.32;;;23.20;66.30;;;;;;10262352;28;20146;-58
2022/06/30 07:01:51;;;;;;;9.18;6.90;;;23.20;66.20;;;;;;10280528;28;20027;-57
2022/06/30 07:06:51;;;;;;;9.63;7.90;;;23.20;65.70;;;;;;10290517;28;20050;-58
2022/06/30 07:11:52;;;;;;;8.05;7.20;;;23.20;65.60;;;;;;10286091;28;20155;-59
2022/06/30 07:16:53;;;;;;;10.40;9.00;;;23.20;65.70;;;;;;10279945;28;20034;-58
2022/06/30 07:21:54;;;;;;;11.23;6.95;;;23.30;65.70;;;;;;10282590;28;20378;-57
2022/06/30 07:26:54;;;;;;;9.38;7.82;;;23.30;65.70;;;;;;10283093;28;20035;-58
2022/06/30 07:31:55;;;;;;;8.02;7.15;;;23.30;65.80;;;;;;10271261;28;20041;-58
2022/06/30 07:36:56;;;;;;;8.57;7.55;;;23.30;65.80;;;;;;10261865;28;20126;-56
2022/06/30 07:41:56;;;;;;;8.57;7.68;;;23.30;65.80;;;;;;10266839;28;20038;-57
2022/06/30 07:46:57;;;;;;;8.32;7.53;;;23.30;65.80;;;;;;10265792;28;20035;-57
2022/06/30 07:51:58;;;;;;;8.02;7.22;;;23.30;65.90;;;;;;10266960;28;20035;-56
2022/06/30 07:57:00;;;;;;;8.80;7.47;;;23.30;65.90;;;;;;10265042;28;20046;-57
2022/06/30 08:02:01;;;;;;;8.23;7.38;;;23.30;65.90;;;;;;10283103;28;20481;-57
2022/06/30 08:07:03;;;;;;;9.57;8.13;;;23.30;66.00;;;;;;10289565;28;20039;-57
2022/06/30 08:12:06;;;;;;;8.00;7.30;;;23.30;66.00;;;;;;10286283;28;20065;-57
2022/06/30 08:17:07;;;;;;;7.85;6.65;;;23.40;66.00;;;;;;10261930;28;20067;-58
2022/06/30 08:22:08;;;;;;;8.65;7.75;;;23.40;66.00;;;;;;10246601;28;20038;-57
2022/06/30 08:27:09;;;;;;;8.45;7.65;;;23.40;66.00;;;;;;10247154;29;20098;-58
2022/06/30 08:32:10;;;;;;;8.73;7.82;;;23.40;66.00;;;;;;10270214;28;20471;-58
2022/06/30 08:37:10;;;;;;;9.38;7.18;;;23.40;66.00;;;;;;10257169;28;20046;-57
2022/06/30 08:42:12;;;;;;;7.60;6.80;;;23.40;66.00;;;;;;10288819;28;20538;-57
2022/06/30 08:47:13;;;;;;;7.85;7.03;;;23.40;66.00;;;;;;10234740;29;20186;-57
2022/06/30 08:52:14;;;;;;;7.40;6.70;;;23.40;66.00;;;;;;10283657;28;20809;-56
2022/06/30 08:57:15;;;;;;;6.88;6.22;;;23.40;66.00;;;;;;10271608;28;20042;-58
2022/06/30 09:02:16;;;;;;;6.35;5.75;;;23.40;66.00;;;;;;10286570;28;20073;-57
2022/06/30 09:07:17;;;;;;;7.18;6.15;;;23.40;66.00;;;;;;10287998;28;20081;-57
2022/06/30 09:12:19;;;;;;;7.53;6.40;;;23.40;66.00;;;;;;10282585;28;20064;-57
2022/06/30 09:17:22;;;;;;;9.90;6.57;;;23.40;65.90;;;;;;10276666;28;20482;-57
2022/06/30 09:22:30;;;;;;;5.93;5.32;;;23.40;65.90;;;;;;10287787;28;20031;-57
2022/06/30 09:27:34;;;;;;;6.05;5.30;;;23.40;65.90;;;;;;10285899;28;20114;-57
2022/06/30 09:32:48;;;;;;;8.90;6.28;;;23.40;65.80;;;;;;10268905;28;20513;-58
2022/06/30 09:38:06;;;;;;;8.48;5.55;;;23.50;65.90;;;;;;10245787;28;20459;-57
2022/06/30 09:43:06;;;;;;;6.22;5.63;;;23.50;65.90;;;;;;10245545;28;20035;-57
2022/06/30 09:48:11;;;;;;;6.22;5.63;;;23.40;65.80;;;;;;10248415;28;20031;-57
2022/06/30 09:53:14;;;;;;;5.95;5.38;;;23.50;65.90;;;;;;10285056;28;20097;-57
2022/06/30 09:58:28;;;;;;;5.75;4.63;;;23.50;65.90;;;;;;10266057;28;20443;-57
2022/06/30 10:03:29;;;;;;;5.45;4.82;;;23.50;65.90;;;;;;10246259;28;20375;-56
2022/06/30 10:08:30;;;;;;;5.57;5.00;;;23.50;65.90;;;;;;10246150;28;20110;-57
2022/06/30 10:13:36;;;;;;;6.53;4.88;;;23.50;66.00;;;;;;10245041;28;20027;-58
2022/06/30 10:18:39;;;;;;;5.45;4.95;;;23.50;65.90;;;;;;10244455;28;20359;-57
2022/06/30 10:23:40;;;;;;;5.28;4.32;;;23.50;65.90;;;;;;10273529;28;20529;-57
2022/06/30 10:28:41;;;;;;;5.38;4.88;;;23.50;65.90;;;;;;10284356;28;20486;-57
2022/06/30 10:34:20;;;;;;;6.80;4.40;;;23.60;65.90;;;;;;10266079;28;20044;-57
2022/06/30 10:39:50;;;;;;;7.10;5.00;;;23.60;65.80;;;;;;10243932;28;20043;-58
2022/06/30 10:44:51;;;;;;;6.38;4.95;;;23.60;65.80;;;;;;10244445;28;20541;-58
2022/06/30 10:49:54;;;;;;;4.75;4.25;;;23.60;65.70;;;;;;10259891;28;20038;-57
2022/06/30 10:55:03;;;;;;;5.25;4.30;;;23.60;65.80;;;;;;10260330;28;20042;-57
2022/06/30 11:00:04;;;;;;;5.15;4.65;;;23.60;65.80;;;;;;10241069;28;20039;-57
2022/06/30 11:05:24;;;;;;;6.93;4.32;;;23.60;65.70;;;;;;10280787;28;20031;-56
2022/06/30 11:10:25;;;;;;;4.32;3.92;;;23.70;65.70;;;;;;10267474;28;20037;-57
2022/06/30 11:15:50;;;;;;;4.93;4.43;;;23.70;65.70;;;;;;10283278;28;20034;-57
2022/06/30 11:20:53;;;;;;;5.57;4.75;;;23.80;65.90;;;;;;10250591;28;20128;-58
2022/06/30 11:31:29;;;;;;;4.45;3.90;;;23.80;66.20;;;;;;10269599;28;20039;-57
2022/06/30 11:36:32;;;;;;;4.72;4.03;;;23.80;66.40;;;;;;10291337;28;20129;-56
2022/06/30 11:47:17;;;;;;;5.40;3.92;;;23.90;66.50;;;;;;10249774;28;20114;-58
2022/06/30 11:52:41;;;;;;;5.57;4.27;;;23.90;66.70;;;;;;10269299;28;20097;-58
2022/06/30 11:57:47;;;;;;;5.18;4.25;;;23.90;66.70;;;;;;10290892;28;20550;-57
2022/06/30 12:02:50;;;;;;;4.20;3.80;;;23.90;66.70;;;;;;10273708;28;20058;-58
2022/06/30 12:07:50;;;;;;;4.25;3.50;;;23.90;66.80;;;;;;10282917;28;20161;-58
2022/06/30 12:12:51;;;;;;;4.43;4.03;;;23.90;66.70;;;;;;10232901;28;20082;-58
2022/06/30 12:17:53;;;;;;;4.78;4.35;;;23.90;66.80;;;;;;10248498;29;20019;-57
2022/06/30 12:22:54;;;;;;;5.03;3.80;;;23.90;66.70;;;;;;10249750;28;20466;-58
2022/06/30 12:27:59;;;;;;;6.95;4.13;;;23.90;66.80;;;;;;10248615;29;20031;-58
2022/06/30 12:33:03;;;;;;;4.90;3.58;;;23.90;66.80;;;;;;10266468;28;20042;-58
2022/06/30 12:38:12;;;;;;;4.85;3.90;;;23.90;66.90;;;;;;10247080;29;20106;-56
2022/06/30 12:43:13;;;;;;;3.53;3.22;;;23.90;66.90;;;;;;10247817;28;20110;-57
2022/06/30 12:48:54;;;;;;;3.95;3.55;;;23.90;66.80;;;;;;10250491;28;20102;-57
2022/06/30 12:54:13;;;;;;;4.75;3.85;;;23.90;66.80;;;;;;10246821;28;20042;-58
2022/06/30 12:59:20;;;;;;;4.38;3.50;;;23.90;66.80;;;;;;10247331;28;20058;-58
2022/06/30 13:04:24;;;;;;;3.72;3.38;;;23.90;66.80;;;;;;10247022;28;20050;-58
2022/06/30 13:09:34;;;;;;;4.63;3.20;;;23.80;66.80;;;;;;10246722;28;20041;-57
2022/06/30 13:14:36;;;;;;;4.53;3.75;;;23.90;66.60;;;;;;10245926;28;20034;-58
2022/06/30 13:19:37;;;;;;;3.85;3.45;;;23.90;66.60;;;;;;10246399;29;20431;-58
2022/06/30 13:24:38;;;;;;;4.47;3.58;;;24.00;66.50;;;;;;10246163;29;20055;-57
2022/06/30 13:29:40;;;;;;;3.10;2.80;;;24.00;66.50;;;;;;10252168;28;20034;-58
2022/06/30 13:34:40;;;;;;;3.55;2.97;;;24.00;66.50;;;;;;10285701;28;20054;-57
2022/06/30 13:39:42;;;;;;;3.85;3.33;;;24.00;66.40;;;;;;10286181;28;20042;-56
2022/06/30 13:44:42;;;;;;;3.63;3.03;;;24.00;66.40;;;;;;10285587;28;20043;-58
2022/06/30 13:49:44;;;;;;;3.97;3.35;;;24.00;66.40;;;;;;10271814;28;20518;-57
2022/06/30 13:54:45;;;;;;;3.30;3.00;;;24.00;66.30;;;;;;10245249;28;20038;-57
2022/06/30 13:59:46;;;;;;;3.85;3.50;;;24.00;66.40;;;;;;10243814;28;20035;-57
2022/06/30 14:04:46;;;;;;;4.38;3.60;;;24.00;66.30;;;;;;10245115;28;20067;-58
2022/06/30 14:09:48;;;;;;;4.93;3.65;;;24.00;66.30;;;;;;10245494;28;20046;-58
2022/06/30 14:14:48;;;;;;;4.88;3.30;;;24.00;66.40;;;;;;10255235;28;20027;-58
2022/06/30 14:19:49;;;;;;;3.63;3.10;;;24.00;66.50;;;;;;10286014;28;20031;-58
2022/06/30 14:24:50;;;;;;;3.63;3.33;;;23.90;66.50;;;;;;10268503;28;20035;-57
2022/06/30 14:29:51;;;;;;;4.65;3.13;;;23.90;66.50;;;;;;10267908;28;20035;-58
2022/06/30 14:34:52;;;;;;;3.70;2.80;;;23.90;66.50;;;;;;10256396;28;20082;-57
2022/06/30 14:39:53;;;;;;;4.13;3.55;;;23.90;66.60;;;;;;10244361;29;20035;-57
2022/06/30 14:44:54;;;;;;;4.13;3.33;;;23.90;66.60;;;;;;10244507;28;20019;-57
2022/06/30 14:49:55;;;;;;;4.20;3.40;;;23.90;66.70;;;;;;10244434;28;20130;-57
2022/06/30 14:54:56;;;;;;;3.95;3.55;;;23.90;66.60;;;;;;10268455;28;20045;-58
2022/06/30 14:59:57;;;;;;;3.15;2.55;;;23.90;66.60;;;;;;10276286;28;20100;-58
2022/06/30 15:04:58;;;;;;;3.45;3.00;;;23.90;66.60;;;;;;10293097;28;20022;-58
2022/06/30 15:09:59;;;;;;;3.30;2.75;;;23.90;66.50;;;;;;10292398;28;20038;-58
2022/06/30 15:15:00;;;;;;;3.03;2.63;;;23.90;66.50;;;;;;10265325;28;20066;-57
2022/06/30 15:20:01;;;;;;;3.55;2.70;;;23.90;66.60;;;;;;10250724;28;20035;-59
2022/06/30 15:25:02;;;;;;;3.05;2.50;;;23.90;66.50;;;;;;10250636;28;20502;-58
2022/06/30 15:30:04;;;;;;;3.58;2.50;;;23.90;66.40;;;;;;10276827;28;20106;-57
2022/06/30 15:35:05;;;;;;;4.20;2.95;;;23.90;66.40;;;;;;10272201;28;20054;-58
2022/06/30 15:40:10;;;;;;;3.70;2.85;;;23.90;66.40;;;;;;10289947;28;20043;-58
2022/06/30 15:45:11;;;;;;;6.22;2.65;;;23.90;66.40;;;;;;10274009;28;20149;-58
2022/06/30 15:50:12;;;;;;;4.00;3.08;;;23.90;66.30;;;;;;10263412;28;20034;-58
2022/06/30 15:55:13;;;;;;;3.15;2.38;;;23.90;67.00;;;;;;10273519;28;20028;-58
2022/06/30 16:00:14;;;;;;;2.97;2.38;;;23.90;66.30;;;;;;10258545;28;20652;-57
2022/06/30 16:05:15;;;;;;;10.77;3.83;;;23.90;66.40;;;;;;10277982;28;20027;-57
2022/06/30 16:10:16;;;;;;;8.77;3.95;;;23.90;66.70;;;;;;10289847;28;20484;-58
2022/06/30 16:15:16;;;;;;;7.93;3.50;;;23.90;66.90;;;;;;10272238;28;20046;-58
2022/06/30 16:20:17;;;;;;;6.65;3.95;;;23.90;67.70;;;;;;10285737;28;20565;-58
2022/06/30 16:25:18;;;;;;;6.93;3.30;;;24.00;67.70;;;;;;10261032;28;20825;-59
2022/06/30 16:30:19;;;;;;;6.60;3.03;;;24.00;67.80;;;;;;10289441;28;20038;-59
2022/06/30 16:35:20;;;;;;;9.15;3.88;;;23.90;67.90;;;;;;10281399;28;20061;-58
2022/06/30 16:40:20;;;;;;;6.32;3.13;;;23.90;67.90;;;;;;10268981;28;20043;-59
2022/06/30 16:45:24;;;;;;;13.70;3.53;;;23.90;67.90;;;;;;10279226;28;20030;-59
2022/06/30 16:50:25;;;;;;;11.70;3.63;;;23.90;67.00;;;;;;10278179;28;20030;-59
2022/06/30 16:55:31;;;;;;;27.33;4.70;;;23.90;67.20;;;;;;10277492;28;20114;-58
2022/06/30 17:00:31;;;;;;;9.60;3.55;;;23.90;67.30;;;;;;10273580;28;20082;-58
2022/06/30 17:05:32;;;;;;;8.10;2.90;;;24.00;67.10;;;;;;10246773;28;20085;-57
2022/06/30 17:10:35;;;;;;;8.63;3.42;;;23.90;66.70;;;;;;10276500;28;20125;-60
2022/06/30 17:15:36;;;;;;;4.60;2.70;;;23.80;66.60;;;;;;10286703;28;20053;-59
2022/06/30 17:20:37;;;;;;;6.70;3.28;;;23.90;66.50;;;;;;10285569;28;20090;-58
2022/06/30 17:25:38;;;;;;;4.13;2.08;;;23.90;66.30;;;;;;10286048;28;20084;-58
2022/06/30 17:30:39;;;;;;;5.93;2.40;;;23.80;66.20;;;;;;10287634;28;20539;-58
2022/06/30 17:35:40;;;;;;;4.20;1.75;;;23.80;66.30;;;;;;10286189;28;20050;-59
2022/06/30 17:40:41;;;;;;;4.68;2.10;;;23.80;66.30;;;;;;10269254;28;20030;-59
2022/06/30 17:45:42;;;;;;;5.40;3.08;;;23.80;66.30;;;;;;10259050;28;20479;-58
2022/06/30 17:50:44;;;;;;;5.53;2.35;;;23.80;66.80;;;;;;10271682;28;20030;-57
2022/06/30 17:55:45;;;;;;;5.18;2.63;;;23.80;66.70;;;;;;10277719;28;20416;-57
2022/06/30 18:00:48;;;;;;;5.15;2.13;;;23.80;67.10;;;;;;10278642;28;20461;-58
2022/06/30 18:05:51;;;;;;;4.15;2.40;;;23.80;66.60;;;;;;10276835;28;20063;-58
2022/06/30 18:16:12;;;;;;;4.60;2.25;;;23.80;66.40;;;;;;10249828;28;20047;-59
2022/06/30 18:21:14;;;;;;;6.85;2.33;;;23.80;66.30;;;;;;10256116;28;20058;-59
2022/06/30 18:26:15;;;;;;;5.28;2.55;;;23.80;66.20;;;;;;10280225;28;20038;-59
2022/06/30 18:31:16;;;;;;;6.80;2.47;;;23.80;66.20;;;;;;10282731;28;20031;-58
2022/06/30 18:36:19;;;;;;;3.22;2.05;;;23.80;66.10;;;;;;10284991;28;20058;-58
2022/06/30 18:41:27;;;;;;;4.97;2.13;;;23.80;66.10;;;;;;10286660;28;20058;-58
2022/06/30 18:46:31;;;;;;;4.73;2.20;;;23.80;66.10;;;;;;10289466;28;20051;-58
2022/06/30 18:51:33;;;;;;;4.45;2.08;;;23.80;65.90;;;;;;10283148;28;20103;-58
2022/06/30 18:56:38;;;;;;;2.55;1.88;;;23.80;65.80;;;;;;10283433;28;20370;-59
2022/06/30 19:01:38;;;;;;;4.03;1.92;;;23.70;66.00;;;;;;10275528;28;20082;-58
2022/06/30 19:06:39;;;;;;;3.75;1.90;;;23.70;66.30;;;;;;10257151;28;20058;-58
2022/06/30 19:11:40;;;;;;;4.93;1.75;;;23.70;66.30;;;;;;10283272;28;20031;-58
2022/06/30 19:16:41;;;;;;;4.00;1.73;;;23.70;66.10;;;;;;10282719;28;20051;-58
2022/06/30 19:21:41;;;;;;;2.92;1.90;;;23.70;66.40;;;;;;10295243;28;20019;-58
2022/06/30 19:26:42;;;;;;;3.33;1.52;;;23.70;66.30;;;;;;10257759;28;20032;-58
2022/06/30 19:31:43;;;;;;;2.42;1.80;;;23.70;66.20;;;;;;10292288;28;20478;-57
2022/06/30 19:36:44;;;;;;;3.58;1.45;;;23.60;65.80;;;;;;10284730;28;20063;-57
2022/06/30 19:41:44;;;;;;;1.80;1.40;;;23.60;65.70;;;;;;10271491;28;20457;-59
2022/06/30 19:46:45;;;;;;;3.92;1.70;;;23.60;65.80;;;;;;10286099;28;20478;-59
2022/06/30 19:51:46;;;;;;;3.95;2.17;;;23.60;65.60;;;;;;10292111;28;20034;-59
2022/06/30 19:56:46;;;;;;;4.60;1.38;;;23.60;65.60;;;;;;10290660;28;20118;-58
2022/06/30 20:01:47;;;;;;;2.10;1.48;;;23.60;65.50;;;;;;10278118;28;20110;-58
2022/06/30 20:06:48;;;;;;;2.20;1.30;;;23.60;65.50;;;;;;10276121;28;20034;-59
2022/06/30 20:11:48;;;;;;;3.33;1.63;;;23.60;65.40;;;;;;10280722;28;20035;-58
2022/06/30 20:16:49;;;;;;;2.65;1.48;;;23.60;65.50;;;;;;10270076;28;20683;-58
2022/06/30 20:21:50;;;;;;;3.65;1.30;;;23.60;65.50;;;;;;10249499;28;20062;-59
2022/06/30 20:26:52;;;;;;;2.75;1.13;;;23.60;65.40;;;;;;10239921;28;20361;-58
2022/06/30 20:31:52;;;;;;;3.38;1.38;;;23.60;65.40;;;;;;10278848;28;20038;-59
2022/06/30 20:36:53;;;;;;;2.90;2.30;;;23.50;65.40;;;;;;10262856;28;20031;-59
2022/06/30 20:41:54;;;;;;;1.58;1.00;;;23.50;65.40;;;;;;10262000;28;20034;-63
2022/06/30 20:46:54;;;;;;;2.50;1.42;;;23.50;65.40;;;;;;10289475;28;20041;-59
2022/06/30 20:51:55;;;;;;;10.23;1.60;;;23.50;65.40;;;;;;10239262;29;20506;-59
2022/06/30 20:56:56;;;;;;;3.70;1.60;;;23.50;65.50;;;;;;10266227;28;20082;-58
2022/06/30 21:01:58;;;;;;;1.23;1.10;;;23.50;65.40;;;;;;10287273;28;20117;-57
2022/06/30 21:06:59;;;;;;;2.20;1.20;;;23.50;65.40;;;;;;10287296;28;20058;-57
2022/06/30 21:11:59;;;;;;;1.60;1.08;;;23.50;65.20;;;;;;10287311;28;20031;-59
2022/06/30 21:17:00;;;;;;;3.00;1.35;;;23.50;65.60;;;;;;10287114;28;20041;-59
2022/06/30 21:22:01;;;;;;;2.55;1.52;;;23.50;65.10;;;;;;10287221;28;20624;-59
2022/06/30 21:27:03;;;;;;;3.05;0.93;;;23.50;65.20;;;;;;10284840;28;20035;-59
2022/06/30 21:32:04;;;;;;;1.33;0.88;;;23.50;65.20;;;;;;10276989;28;20066;-59
2022/06/30 21:37:04;;;;;;;4.03;1.10;;;23.50;65.20;;;;;;10286335;28;20496;-59
2022/06/30 21:42:05;;;;;;;6.03;1.17;;;23.50;65.20;;;;;;10286496;28;20037;-60
2022/06/30 21:47:06;;;;;;;1.13;0.88;;;23.50;65.10;;;;;;10273418;28;20030;-58
2022/06/30 21:52:07;;;;;;;1.95;1.15;;;23.40;65.20;;;;;;10264346;28;20114;-59
2022/06/30 21:57:08;;;;;;;1.85;0.95;;;23.40;65.10;;;;;;10280402;28;20031;-59
2022/06/30 22:02:08;;;;;;;1.35;1.00;;;23.40;65.20;;;;;;10277512;28;20033;-61
2022/06/30 22:07:09;;;;;;;1.77;1.00;;;23.40;65.20;;;;;;10283791;28;20038;-59
2022/06/30 22:12:10;;;;;;;1.50;1.20;;;23.40;65.10;;;;;;10248818;28;20039;-59
2022/06/30 22:17:11;;;;;;;1.45;0.93;;;23.40;65.10;;;;;;10268793;28;20078;-59
2022/06/30 22:22:11;;;;;;;3.10;0.93;;;23.40;65.10;;;;;;10272373;28;20022;-59
2022/06/30 22:27:13;;;;;;;1.45;1.00;;;23.40;65.10;;;;;;10269189;28;20121;-59
2022/06/30 22:32:13;;;;;;;1.23;0.82;;;23.40;65.00;;;;;;10277761;28;20027;-59
2022/06/30 22:37:15;;;;;;;1.25;0.85;;;23.40;65.00;;;;;;10266444;28;20046;-60
2022/06/30 22:42:15;;;;;;;1.10;0.90;;;23.40;65.00;;;;;;10245855;28;20054;-60
2022/06/30 22:47:16;;;;;;;1.75;1.10;;;23.40;65.00;;;;;;10267328;28;20035;-59
2022/06/30 22:52:17;;;;;;;1.75;1.10;;;23.30;65.00;;;;;;10262469;28;20066;-59
2022/06/30 22:57:18;;;;;;;2.80;1.02;;;23.30;64.90;;;;;;10277135;28;20129;-58
2022/06/30 23:02:18;;;;;;;0.95;0.73;;;23.30;64.90;;;;;;10284691;28;20037;-60
2022/06/30 23:07:19;;;;;;;1.58;0.95;;;23.30;64.80;;;;;;10272019;28;20066;-59
2022/06/30 23:12:20;;;;;;;1.10;1.00;;;23.30;64.90;;;;;;10264034;28;20070;-59
2022/06/30 23:17:21;;;;;;;1.17;1.00;;;23.30;64.90;;;;;;10277028;28;20041;-59
2022/06/30 23:22:23;;;;;;;1.17;0.88;;;23.30;64.90;;;;;;10255916;28;20027;-59
2022/06/30 23:27:24;;;;;;;1.50;0.90;;;23.30;64.90;;;;;;10279398;28;20378;-58
2022/06/30 23:32:25;;;;;;;1.27;0.70;;;23.30;64.90;;;;;;10282229;28;20050;-60
2022/06/30 23:37:26;;;;;;;1.88;1.08;;;23.30;64.80;;;;;;10275106;28;20429;-60
2022/06/30 23:42:26;;;;;;;1.15;0.80;;;23.30;64.80;;;;;;10260673;28;20029;-59
2022/06/30 23:47:27;;;;;;;4.07;1.35;;;23.30;64.80;;;;;;10273348;28;20657;-60
2022/06/30 23:52:29;;;;;;;1.00;0.80;;;23.30;64.90;;;;;;10254373;28;20055;-60
2022/06/30 23:57:30;;;;;;;1.30;0.70;;;23.30;64.80;;;;;;10286292;28;20118;-59
